Time,TemperatureF,DewpointF,PressureIn,WindDirection,WindDirectionDegrees,WindSpeedMPH,WindSpeedGustMPH,Humidity,HourlyPrecipIn,Conditions,Clouds,dailyrainin,SoftwareType,DateUTC
2013-05-14 00:13:00,37.0,27.0,30.14,SSE,155,0.0,2.0,67,0.00,,,0.00,weatherlink.com 1.10,2013-05-14 04:13:00,
2013-05-14 00:28:00,36.4,27.0,30.14,SE,127,0.0,2.0,68,0.00,,,0.00,weatherlink.com 1.10,2013-05-14 04:28:00,
2013-05-14 00:43:00,37.0,27.0,30.14,SE,141,0.0,3.0,67,0.00,,,0.00,weatherlink.com 1.10,2013-05-14 04:43:00,
2013-05-14 00:59:00,36.7,27.0,30.14,SE,130,0.0,2.0,69,0.00,,,0.00,weatherlink.com 1.10,2013-05-14 04:59:00,
2013-05-14 01:14:00,36.0,27.0,30.14,South,186,0.0,1.0,69,0.00,,,0.00,weatherlink.com 1.10,2013-05-14 05:14:00,
2013-05-14 01:29:00,35.9,27.0,30.14,SSE,152,1.0,1.0,69,0.00,,,0.00,weatherlink.com 1.10,2013-05-14 05:29:00,
2013-05-14 01:44:00,35.7,27.0,30.14,South,174,0.0,1.0,70,0.00,,,0.00,weatherlink.com 1.10,2013-05-14 05:44:00,
2013-05-14 01:59:00,35.9,27.0,30.14,SSE,165,0.0,2.0,70,0.00,,,0.00,weatherlink.com 1.10,2013-05-14 05:59:00,
2013-05-14 02:14:00,35.5,27.0,30.14,SSE,151,1.0,1.0,72,0.00,,,0.00,weatherlink.com 1.10,2013-05-14 06:14:00,
2013-05-14 02:29:00,35.3,27.0,30.14,SSE,150,0.0,1.0,72,0.00,,,0.00,weatherlink.com 1.10,2013-05-14 06:29:00,
2013-05-14 02:44:00,35.4,27.0,30.14,SSE,150,0.0,1.0,72,0.00,,,0.00,weatherlink.com 1.10,2013-05-14 06:44:00,
2013-05-14 02:59:00,35.3,27.0,30.14,SE,134,0.0,1.0,72,0.00,,,0.00,weatherlink.com 1.10,2013-05-14 06:59:00,
2013-05-14 03:14:00,35.5,27.0,30.15,SE,134,0.0,1.0,72,0.00,,,0.00,weatherlink.com 1.10,2013-05-14 07:14:00,
2013-05-14 03:29:00,35.5,27.0,30.15,SE,134,0.0,1.0,71,0.00,,,0.00,weatherlink.com 1.10,2013-05-14 07:29:00,
2013-05-14 03:45:00,35.3,27.0,30.15,SE,134,0.0,1.0,71,0.00,,,0.00,weatherlink.com 1.10,2013-05-14 07:45:00,
2013-05-14 03:59:00,34.9,27.0,30.14,SE,134,1.0,1.0,72,0.00,,,0.00,weatherlink.com 1.10,2013-05-14 07:59:00,
2013-05-14 04:14:00,34.6,27.0,30.15,SE,134,1.0,1.0,74,0.00,,,0.00,weatherlink.com 1.10,2013-05-14 08:14:00,
2013-05-14 04:29:00,34.2,27.0,30.14,ESE,120,1.0,1.0,76,0.00,,,0.00,weatherlink.com 1.10,2013-05-14 08:29:00,
2013-05-14 04:44:00,34.2,27.0,30.14,ESE,120,1.0,1.0,75,0.00,,,0.00,weatherlink.com 1.10,2013-05-14 08:44:00,
2013-05-14 04:59:00,34.0,27.0,30.15,ESE,120,1.0,1.0,75,0.00,,,0.00,weatherlink.com 1.10,2013-05-14 08:59:00,
2013-05-14 05:14:00,34.1,27.0,30.14,ESE,120,1.0,1.0,75,0.00,,,0.00,weatherlink.com 1.10,2013-05-14 09:14:00,
2013-05-14 05:29:00,34.4,27.0,30.15,ESE,120,0.0,1.0,74,0.00,,,0.00,weatherlink.com 1.10,2013-05-14 09:29:00,
2013-05-14 05:44:00,34.5,26.0,30.15,ESE,120,0.0,1.0,72,0.00,,,0.00,weatherlink.com 1.10,2013-05-14 09:44:00,
2013-05-14 05:59:00,34.8,27.0,30.16,ESE,120,0.0,1.0,72,0.00,,,0.00,weatherlink.com 1.10,2013-05-14 09:59:00,
2013-05-14 06:14:00,35.1,26.0,30.16,SW,214,0.0,1.0,69,0.00,,,0.00,weatherlink.com 1.10,2013-05-14 10:14:00,
2013-05-14 06:29:00,35.3,26.0,30.17,SSW,212,0.0,0.0,70,0.00,,,0.00,weatherlink.com 1.10,2013-05-14 10:29:00,
2013-05-14 06:44:00,35.3,27.0,30.17,SW,233,0.0,1.0,71,0.00,,,0.00,weatherlink.com 1.10,2013-05-14 10:44:00,
2013-05-14 06:59:00,35.0,28.0,30.17,SW,220,0.0,1.0,75,0.00,,,0.00,weatherlink.com 1.10,2013-05-14 10:59:00,
2013-05-14 07:14:00,34.4,28.0,30.17,SW,229,1.0,1.0,78,0.00,,,0.00,weatherlink.com 1.10,2013-05-14 11:14:00,
2013-05-14 07:29:00,34.5,29.0,30.17,SSE,153,0.0,1.0,79,0.00,,,0.00,weatherlink.com 1.10,2013-05-14 11:29:00,
2013-05-14 07:59:00,36.2,29.0,30.18,SSW,193,2.0,3.0,76,0.00,,,0.00,weatherlink.com 1.10,2013-05-14 11:59:00,
2013-05-14 08:14:00,36.7,30.0,30.18,SSW,198,2.0,4.0,76,0.00,,,0.00,weatherlink.com 1.10,2013-05-14 12:14:00,
2013-05-14 08:29:00,37.8,30.0,30.18,South,172,1.0,4.0,74,0.00,,,0.00,weatherlink.com 1.10,2013-05-14 12:29:00,
2013-05-14 08:45:00,38.9,30.0,30.18,SSW,213,2.0,6.0,71,0.00,,,0.00,weatherlink.com 1.10,2013-05-14 12:45:00,
2013-05-14 09:00:00,39.8,30.0,30.18,WNW,297,0.0,7.0,69,0.00,,,0.00,weatherlink.com 1.10,2013-05-14 13:00:00,
2013-05-14 09:15:00,40.6,30.0,30.19,West,276,4.0,8.0,67,0.00,,,0.00,weatherlink.com 1.10,2013-05-14 13:15:00,
2013-05-14 09:30:00,41.6,31.0,30.18,West,259,2.0,5.0,65,0.00,,,0.00,weatherlink.com 1.10,2013-05-14 13:30:00,
2013-05-14 09:45:00,42.7,31.0,30.18,East,84,1.0,5.0,63,0.00,,,0.00,weatherlink.com 1.10,2013-05-14 13:45:00,
2013-05-14 10:00:00,43.9,31.0,30.17,SW,225,2.0,6.0,60,0.00,,,0.00,weatherlink.com 1.10,2013-05-14 14:00:00,
2013-05-14 10:15:00,44.8,31.0,30.17,West,259,3.0,6.0,59,0.00,,,0.00,weatherlink.com 1.10,2013-05-14 14:15:00,
2013-05-14 10:30:00,46.1,32.0,30.17,SSW,205,2.0,5.0,58,0.00,,,0.00,weatherlink.com 1.10,2013-05-14 14:30:00,
2013-05-14 10:45:00,47.4,29.0,30.18,SW,219,1.0,8.0,50,0.00,,,0.00,weatherlink.com 1.10,2013-05-14 14:45:00,
2013-05-14 11:00:00,48.7,30.0,30.16,WSW,240,1.0,7.0,49,0.00,,,0.00,weatherlink.com 1.10,2013-05-14 15:00:00,
2013-05-14 11:15:00,49.6,30.0,30.16,NNW,327,2.0,7.0,47,0.00,,,0.00,weatherlink.com 1.10,2013-05-14 15:15:00,
2013-05-14 11:30:00,50.3,30.0,30.16,WSW,253,1.0,6.0,46,0.00,,,0.00,weatherlink.com 1.10,2013-05-14 15:30:00,
2013-05-14 11:45:00,51.6,30.0,30.15,East,86,1.0,9.0,43,0.00,,,0.00,weatherlink.com 1.10,2013-05-14 15:45:00,
2013-05-14 12:00:00,51.7,31.0,30.15,NNW,341,1.0,6.0,45,0.00,,,0.00,weatherlink.com 1.10,2013-05-14 16:00:00,
2013-05-14 12:15:00,53.1,32.0,30.14,East,90,0.0,6.0,44,0.00,,,0.00,weatherlink.com 1.10,2013-05-14 16:15:00,
2013-05-14 12:30:00,52.4,30.0,30.14,WNW,297,2.0,5.0,43,0.00,,,0.00,weatherlink.com 1.10,2013-05-14 16:30:00,
2013-05-14 12:45:00,54.3,30.0,30.13,NNE,16,6.0,7.0,40,0.00,,,0.00,weatherlink.com 1.10,2013-05-14 16:45:00,
2013-05-14 13:00:00,53.8,31.0,30.13,NNW,328,2.0,6.0,42,0.00,,,0.00,weatherlink.com 1.10,2013-05-14 17:00:00,
2013-05-14 13:15:00,55.8,31.0,30.12,SSW,193,2.0,5.0,39,0.00,,,0.00,weatherlink.com 1.10,2013-05-14 17:15:00,
2013-05-14 13:30:00,56.1,32.0,30.12,NNW,338,2.0,6.0,41,0.00,,,0.00,weatherlink.com 1.10,2013-05-14 17:30:00,
2013-05-14 13:46:00,57.0,33.0,30.12,SW,235,1.0,5.0,41,0.00,,,0.00,weatherlink.com 1.10,2013-05-14 17:46:00,
2013-05-14 14:01:00,58.0,33.0,30.11,NW,318,2.0,5.0,39,0.00,,,0.00,weatherlink.com 1.10,2013-05-14 18:01:00,
2013-05-14 14:16:00,56.1,32.0,30.11,NNW,335,1.0,4.0,41,0.00,,,0.00,weatherlink.com 1.10,2013-05-14 18:16:00,
2013-05-14 14:31:00,55.7,33.0,30.10,SW,214,0.0,6.0,42,0.00,,,0.00,weatherlink.com 1.10,2013-05-14 18:31:00,
2013-05-14 14:47:00,55.8,34.0,30.09,West,271,3.0,8.0,44,0.00,,,0.00,weatherlink.com 1.10,2013-05-14 18:47:00,
2013-05-14 15:01:00,56.5,36.0,30.08,SW,218,4.0,8.0,46,0.00,,,0.00,weatherlink.com 1.10,2013-05-14 19:01:00,
2013-05-14 15:16:00,56.7,32.0,30.09,WSW,248,2.0,8.0,40,0.00,,,0.00,weatherlink.com 1.10,2013-05-14 19:16:00,
2013-05-14 15:31:00,55.5,33.0,30.09,SW,231,3.0,4.0,43,0.00,,,0.00,weatherlink.com 1.10,2013-05-14 19:31:00,
2013-05-14 15:46:00,56.0,34.0,30.09,West,259,2.0,3.0,43,0.00,,,0.00,weatherlink.com 1.10,2013-05-14 19:46:00,
2013-05-14 16:01:00,58.4,32.0,30.08,WSW,246,3.0,5.0,37,0.00,,,0.00,weatherlink.com 1.10,2013-05-14 20:01:00,
2013-05-14 16:16:00,58.3,33.0,30.07,South,179,5.0,5.0,38,0.00,,,0.00,weatherlink.com 1.10,2013-05-14 20:16:00,
2013-05-14 16:31:00,59.4,33.0,30.05,NNW,340,1.0,5.0,37,0.00,,,0.00,weatherlink.com 1.10,2013-05-14 20:31:00,
2013-05-14 16:46:00,61.7,34.0,30.05,East,83,1.0,6.0,36,0.00,,,0.00,weatherlink.com 1.10,2013-05-14 20:46:00,
2013-05-14 17:01:00,60.7,33.0,30.05,WSW,239,4.0,5.0,36,0.00,,,0.00,weatherlink.com 1.10,2013-05-14 21:01:00,
2013-05-14 17:16:00,58.7,34.0,30.05,SW,231,2.0,6.0,39,0.00,,,0.00,weatherlink.com 1.10,2013-05-14 21:16:00,
2013-05-14 17:31:00,60.7,37.0,30.05,ESE,102,0.0,7.0,41,0.00,,,0.00,weatherlink.com 1.10,2013-05-14 21:31:00,
2013-05-14 18:01:00,59.1,38.0,30.05,SW,229,0.0,2.0,45,0.00,,,0.00,weatherlink.com 1.10,2013-05-14 22:01:00,
2013-05-14 18:16:00,58.2,37.0,30.03,West,262,1.0,3.0,46,0.00,,,0.00,weatherlink.com 1.10,2013-05-14 22:16:00,
2013-05-14 18:32:00,57.8,37.0,30.04,WSW,238,0.0,4.0,47,0.00,,,0.00,weatherlink.com 1.10,2013-05-14 22:32:00,
2013-05-14 18:46:00,58.6,37.0,30.03,WNW,301,1.0,6.0,44,0.00,,,0.00,weatherlink.com 1.10,2013-05-14 22:46:00,
2013-05-14 19:01:00,58.7,38.0,30.01,SW,226,1.0,5.0,46,0.00,,,0.00,weatherlink.com 1.10,2013-05-14 23:01:00,
2013-05-14 19:17:00,57.1,36.0,30.01,West,264,3.0,9.0,46,0.00,,,0.00,weatherlink.com 1.10,2013-05-14 23:17:00,
2013-05-14 19:31:00,55.9,37.0,30.01,SW,225,1.0,5.0,49,0.00,,,0.00,weatherlink.com 1.10,2013-05-14 23:31:00,
2013-05-14 19:46:00,55.4,37.0,30.02,SW,218,2.0,4.0,50,0.00,,,0.00,weatherlink.com 1.10,2013-05-14 23:46:00,
2013-05-14 20:01:00,54.8,37.0,30.01,WSW,238,8.0,9.0,51,0.00,,,0.00,weatherlink.com 1.10,2013-05-15 00:01:00,
2013-05-14 20:16:00,54.4,40.0,30.04,East,99,2.0,4.0,58,0.00,,,0.00,weatherlink.com 1.10,2013-05-15 00:16:00,
2013-05-14 20:31:00,52.8,40.0,30.00,South,170,1.0,7.0,62,0.00,,,0.00,weatherlink.com 1.10,2013-05-15 00:31:00,
2013-05-14 20:46:00,52.2,39.0,30.01,WSW,240,1.0,4.0,61,0.00,,,0.00,weatherlink.com 1.10,2013-05-15 00:46:00,
2013-05-14 21:01:00,52.9,39.0,30.01,West,276,2.0,4.0,59,0.00,,,0.00,weatherlink.com 1.10,2013-05-15 01:01:00,
2013-05-14 21:16:00,52.7,39.0,30.01,SSW,210,0.0,4.0,61,0.00,,,0.00,weatherlink.com 1.10,2013-05-15 01:16:00,
2013-05-14 21:31:00,52.6,39.0,30.01,South,175,1.0,3.0,61,0.00,,,0.00,weatherlink.com 1.10,2013-05-15 01:31:00,
2013-05-14 21:46:00,53.0,38.0,30.01,SSW,204,1.0,5.0,58,0.00,,,0.00,weatherlink.com 1.10,2013-05-15 01:46:00,
2013-05-14 22:01:00,53.3,39.0,30.02,SW,226,1.0,3.0,58,0.00,,,0.00,weatherlink.com 1.10,2013-05-15 02:01:00,
2013-05-14 22:16:00,53.3,38.0,30.02,ESE,105,0.0,4.0,57,0.00,,,0.00,weatherlink.com 1.10,2013-05-15 02:16:00,
2013-05-14 22:31:00,53.4,38.0,30.02,SSE,153,0.0,4.0,57,0.00,,,0.00,weatherlink.com 1.10,2013-05-15 02:31:00,
2013-05-14 22:46:00,53.7,38.0,30.02,SE,144,0.0,3.0,56,0.00,,,0.00,weatherlink.com 1.10,2013-05-15 02:46:00,
2013-05-14 23:01:00,54.2,39.0,30.02,North,4,2.0,5.0,56,0.00,,,0.00,weatherlink.com 1.10,2013-05-15 03:01:00,
2013-05-14 23:19:00,54.6,39.0,30.03,SSW,204,0.0,6.0,56,0.00,,,0.00,weatherlink.com 1.10,2013-05-15 03:19:00,
2013-05-14 23:31:00,54.3,40.0,30.00,West,271,2.0,5.0,58,0.00,,,0.00,weatherlink.com 1.10,2013-05-15 03:31:00,
2013-05-14 23:46:00,53.7,40.0,29.99,South,187,2.0,5.0,60,0.00,,,0.00,weatherlink.com 1.10,2013-05-15 03:46:00,